Time;durP1;ratioP1;P1;durP2;ratioP2;P2;SDS_P1;SDS_P2;PMS_P1;PMS_P2;Temp;Humidity;BMP_temperature;BMP_pressure;BME280_temperature;BME280_humidity;BME280_pressure;Samples;Min_cycle;Max_cycle;Signal;HPM_P1;HPM_P2
2022/08/13 00:02:09;;;;;;;4.63;1.58;;;19.30;99.90;;;;;;5047314;28;20040;-57
2022/08/13 00:04:43;;;;;;;2.80;2.05;;;19.30;99.90;;;;;;5043327;28;20040;-57
2022/08/13 00:07:09;;;;;;;7.50;1.95;;;19.30;99.90;;;;;;5043985;28;20490;-55
2022/08/13 00:09:40;;;;;;;4.63;2.17;;;19.40;99.90;;;;;;5046720;28;20045;-57
2022/08/13 00:15:10;;;;;;;9.05;1.80;;;19.30;99.90;;;;;;5042641;28;20043;-54
2022/08/13 00:17:37;;;;;;;3.47;1.60;;;19.30;99.90;;;;;;5043746;28;20021;-57
2022/08/13 00:20:04;;;;;;;2.78;1.73;;;19.30;99.90;;;;;;5045717;28;20025;-55
2022/08/13 00:22:30;;;;;;;4.00;1.70;;;19.30;99.90;;;;;;5044101;28;20036;-57
2022/08/13 00:24:57;;;;;;;2.38;1.30;;;19.40;99.90;;;;;;5040780;28;20033;-56
2022/08/13 00:27:24;;;;;;;10.82;2.35;;;19.30;99.90;;;;;;5046432;28;20024;-56
2022/08/13 00:29:53;;;;;;;4.03;2.22;;;19.20;99.90;;;;;;5046560;28;20033;-56
2022/08/13 00:32:21;;;;;;;2.85;1.73;;;19.20;99.90;;;;;;5048695;28;20021;-55
2022/08/13 00:34:49;;;;;;;3.92;2.33;;;19.30;99.90;;;;;;5042451;28;20433;-54
2022/08/13 00:37:15;;;;;;;4.50;1.70;;;19.30;99.90;;;;;;5052905;28;20087;-56
2022/08/13 00:39:41;;;;;;;2.97;1.63;;;19.30;99.90;;;;;;5052370;28;20423;-57
2022/08/13 00:42:07;;;;;;;3.42;1.83;;;19.30;99.90;;;;;;5048680;28;20029;-58
2022/08/13 00:44:32;;;;;;;1.98;1.50;;;19.20;99.90;;;;;;5047280;28;20865;-56
2022/08/13 00:49:43;;;;;;;2.33;1.77;;;19.30;99.90;;;;;;5047896;28;20075;-55
2022/08/13 00:52:10;;;;;;;2.83;2.10;;;19.20;99.90;;;;;;5048900;28;20090;-54
2022/08/13 00:54:40;;;;;;;4.90;1.80;;;19.10;99.90;;;;;;5044773;28;20017;-57
2022/08/13 00:57:06;;;;;;;3.30;1.35;;;19.00;99.90;;;;;;5049521;28;20489;-54
2022/08/13 00:59:32;;;;;;;9.40;2.03;;;19.00;99.90;;;;;;5048130;28;20018;-55
2022/08/13 01:01:58;;;;;;;3.88;1.65;;;18.80;99.90;;;;;;5049110;28;20037;-55
2022/08/13 01:04:25;;;;;;;4.05;2.40;;;18.70;99.90;;;;;;5047848;28;20031;-53
2022/08/13 01:06:51;;;;;;;7.80;2.20;;;18.60;99.90;;;;;;5048046;28;20546;-53
2022/08/13 01:09:17;;;;;;;6.72;2.40;;;18.70;99.90;;;;;;5047210;28;20100;-54
2022/08/13 01:11:44;;;;;;;7.78;2.22;;;18.60;99.90;;;;;;5050847;28;20506;-57
2022/08/13 01:14:10;;;;;;;2.33;2.08;;;18.50;99.90;;;;;;5046348;28;20115;-54
2022/08/13 01:16:37;;;;;;;3.00;2.17;;;18.50;99.90;;;;;;5052721;28;20029;-54
2022/08/13 01:19:09;;;;;;;6.38;2.58;;;18.60;99.90;;;;;;5053162;28;20025;-55
2022/08/13 01:21:39;;;;;;;5.72;2.60;;;18.60;99.90;;;;;;5049965;28;20044;-53
2022/08/13 01:24:06;;;;;;;4.68;2.40;;;18.50;99.90;;;;;;5052220;28;20037;-55
2022/08/13 01:26:32;;;;;;;7.55;2.15;;;18.40;99.90;;;;;;5051248;28;20031;-57
2022/08/13 01:29:04;;;;;;;3.08;2.22;;;18.40;99.90;;;;;;5050817;28;20759;-55
2022/08/13 01:31:31;;;;;;;5.72;2.53;;;18.40;99.90;;;;;;5045148;28;20032;-55
2022/08/13 01:33:59;;;;;;;5.30;2.47;;;18.40;99.90;;;;;;5050418;28;20029;-54
2022/08/13 01:36:26;;;;;;;3.60;2.40;;;18.40;99.90;;;;;;5046884;28;20021;-56
2022/08/13 01:38:52;;;;;;;4.10;2.63;;;18.40;99.90;;;;;;5049059;28;20053;-53
2022/08/13 01:41:18;;;;;;;10.80;3.38;;;18.30;99.90;;;;;;5044200;28;20052;-53
2022/08/13 01:43:44;;;;;;;6.00;2.70;;;18.20;99.90;;;;;;5047357;28;20028;-57
2022/08/13 01:46:11;;;;;;;3.10;2.25;;;18.20;99.90;;;;;;5047357;28;20040;-56
2022/08/13 01:51:28;;;;;;;5.00;2.00;;;18.20;99.90;;;;;;5039853;28;20048;-55
2022/08/13 01:53:59;;;;;;;7.32;2.58;;;18.30;99.90;;;;;;5048795;28;20021;-55
2022/08/13 01:56:28;;;;;;;4.50;2.67;;;18.40;99.90;;;;;;5045124;28;20399;-56
2022/08/13 01:58:57;;;;;;;4.57;2.92;;;18.40;99.90;;;;;;5046308;28;20024;-54
2022/08/13 02:01:25;;;;;;;5.13;2.08;;;18.50;99.90;;;;;;5043136;28;20036;-54
2022/08/13 02:03:51;;;;;;;3.75;2.60;;;18.50;99.90;;;;;;5041949;28;20065;-55
2022/08/13 02:06:29;;;;;;;7.55;2.13;;;18.50;99.90;;;;;;5047315;28;20544;-55
2022/08/13 02:09:00;;;;;;;3.88;2.42;;;18.60;99.90;;;;;;5047746;28;20047;-56
2022/08/13 02:11:32;;;;;;;2.67;1.98;;;18.60;99.90;;;;;;5041158;28;20499;-57
2022/08/13 02:14:00;;;;;;;8.73;2.30;;;18.60;99.90;;;;;;5045578;28;20029;-54
2022/08/13 02:16:30;;;;;;;5.65;2.47;;;18.70;99.90;;;;;;5044416;28;20479;-56
2022/08/13 02:18:56;;;;;;;3.95;2.63;;;18.70;99.90;;;;;;5046852;28;20035;-54
2022/08/13 02:21:22;;;;;;;4.00;2.88;;;18.70;99.90;;;;;;5046908;28;20028;-54
2022/08/13 02:23:58;;;;;;;4.38;3.05;;;18.60;99.90;;;;;;5045143;28;20025;-55
2022/08/13 02:26:27;;;;;;;4.15;2.72;;;18.60;99.90;;;;;;5044402;28;20116;-52
2022/08/13 02:28:58;;;;;;;4.28;2.60;;;18.50;99.90;;;;;;5044295;28;20151;-56
2022/08/13 02:31:26;;;;;;;5.10;2.00;;;18.40;99.90;;;;;;5046251;28;20052;-55
2022/08/13 02:33:52;;;;;;;4.50;2.05;;;18.30;99.90;;;;;;5028795;28;20031;-55
2022/08/13 02:36:21;;;;;;;2.80;2.25;;;18.30;99.90;;;;;;5043972;28;20021;-55
2022/08/13 02:38:57;;;;;;;13.32;2.83;;;18.40;99.90;;;;;;5048792;28;20018;-55
2022/08/13 02:44:15;;;;;;;4.95;2.65;;;18.40;99.90;;;;;;5045161;28;20063;-55
2022/08/13 02:46:43;;;;;;;4.60;2.40;;;18.40;99.90;;;;;;5047396;28;20430;-54
2022/08/13 02:49:09;;;;;;;3.00;2.38;;;18.30;99.90;;;;;;5045295;28;20075;-56
2022/08/13 02:51:36;;;;;;;4.80;2.58;;;18.30;99.90;;;;;;5042230;28;20148;-56
2022/08/13 02:54:01;;;;;;;4.10;2.33;;;18.30;99.90;;;;;;5044654;28;20051;-53
2022/08/13 02:56:28;;;;;;;4.75;2.78;;;18.30;99.90;;;;;;5047385;28;20471;-56
2022/08/13 02:58:56;;;;;;;8.73;3.13;;;18.30;99.90;;;;;;5045591;28;20545;-54
2022/08/13 03:01:24;;;;;;;3.42;2.47;;;18.20;99.90;;;;;;5047284;28;20074;-55
2022/08/13 03:03:50;;;;;;;3.47;2.63;;;18.20;99.90;;;;;;5049192;28;20025;-55
2022/08/13 03:06:19;;;;;;;4.80;2.58;;;18.10;99.90;;;;;;5039355;28;20033;-57
2022/08/13 03:08:48;;;;;;;4.40;2.95;;;18.10;99.90;;;;;;5048393;28;20083;-55
2022/08/13 03:11:14;;;;;;;4.15;2.72;;;18.10;99.90;;;;;;5044847;28;20029;-58
2022/08/13 03:13:43;;;;;;;5.30;2.65;;;18.10;99.90;;;;;;5044480;28;20025;-56
2022/08/13 03:16:12;;;;;;;6.28;3.00;;;18.20;99.90;;;;;;5046772;28;20052;-57
2022/08/13 03:18:37;;;;;;;5.35;2.65;;;18.10;99.90;;;;;;5048315;28;20390;-58
2022/08/13 03:21:03;;;;;;;6.05;2.67;;;18.10;99.90;;;;;;5049528;28;20036;-56
2022/08/13 03:23:31;;;;;;;6.55;3.05;;;18.00;99.90;;;;;;5049602;28;20025;-58
2022/08/13 03:25:56;;;;;;;9.10;2.92;;;18.00;99.90;;;;;;5044187;28;20149;-57
2022/08/13 03:28:23;;;;;;;8.95;3.03;;;17.90;99.90;;;;;;5046911;28;20537;-53
2022/08/13 03:30:49;;;;;;;5.13;2.47;;;17.80;99.90;;;;;;5038045;28;20037;-58
2022/08/13 03:33:15;;;;;;;5.30;3.85;;;17.80;99.90;;;;;;5047655;28;20557;-56
2022/08/13 03:35:41;;;;;;;4.85;2.45;;;17.70;99.90;;;;;;5044758;28;20032;-57
2022/08/13 03:38:11;;;;;;;6.80;3.03;;;17.60;99.90;;;;;;5049455;28;20398;-55
2022/08/13 03:43:22;;;;;;;3.20;2.90;;;17.30;99.90;;;;;;5049364;28;20036;-55
2022/08/13 03:45:48;;;;;;;7.65;3.22;;;17.20;99.90;;;;;;5046308;28;20025;-57
2022/08/13 03:48:15;;;;;;;7.63;3.28;;;17.20;99.90;;;;;;5045385;28;20036;-54
2022/08/13 03:50:46;;;;;;;3.30;2.80;;;17.10;99.90;;;;;;5043358;28;20475;-53
2022/08/13 03:53:13;;;;;;;8.25;3.10;;;17.00;99.90;;;;;;5049530;28;20030;-55
2022/08/13 03:55:39;;;;;;;3.90;2.97;;;17.00;99.90;;;;;;5046359;28;20025;-57
2022/08/13 03:58:06;;;;;;;5.22;3.17;;;17.00;99.90;;;;;;5047545;28;20063;-56
2022/08/13 04:00:35;;;;;;;6.30;3.28;;;16.90;99.90;;;;;;5046965;28;20025;-58
2022/08/13 04:03:13;;;;;;;4.28;3.00;;;16.90;99.90;;;;;;5045122;28;20119;-57
2022/08/13 04:05:39;;;;;;;8.02;2.83;;;16.90;99.90;;;;;;5042578;28;20055;-54
2022/08/13 04:08:05;;;;;;;6.55;3.33;;;16.90;99.90;;;;;;5045388;28;20056;-56
2022/08/13 04:10:31;;;;;;;4.45;2.90;;;16.80;99.90;;;;;;5049129;28;20453;-55
2022/08/13 04:12:56;;;;;;;5.70;3.17;;;16.80;99.90;;;;;;5049585;28;20029;-56
2022/08/13 04:15:22;;;;;;;5.15;2.97;;;16.80;99.90;;;;;;5048808;28;20507;-57
2022/08/13 04:17:47;;;;;;;8.18;2.97;;;16.70;99.90;;;;;;5047987;28;20025;-56
2022/08/13 04:20:13;;;;;;;5.65;3.08;;;16.70;99.90;;;;;;5047706;28;20056;-56
2022/08/13 04:22:39;;;;;;;3.22;2.42;;;16.70;99.90;;;;;;5043039;28;20025;-52
2022/08/13 04:25:06;;;;;;;4.63;3.33;;;16.60;99.90;;;;;;5045955;28;20836;-56
2022/08/13 04:30:11;;;;;;;6.50;3.00;;;16.60;99.90;;;;;;5006103;28;20045;-59
2022/08/13 04:32:43;;;;;;;4.40;3.25;;;16.60;99.90;;;;;;5011203;28;20040;-59
2022/08/13 04:35:10;;;;;;;5.65;3.13;;;16.60;99.90;;;;;;5013871;28;20030;-58
2022/08/13 04:37:37;;;;;;;4.85;2.65;;;16.60;99.90;;;;;;5001664;28;20117;-58
2022/08/13 04:40:04;;;;;;;3.85;3.00;;;16.50;99.90;;;;;;5006796;28;20396;-59
2022/08/13 04:42:46;;;;;;;4.07;2.97;;;16.50;99.90;;;;;;5012547;28;20041;-59
2022/08/13 04:45:13;;;;;;;6.10;3.65;;;16.50;99.90;;;;;;5020496;28;20030;-59
2022/08/13 04:47:42;;;;;;;8.02;3.85;;;16.50;99.90;;;;;;5014602;28;20503;-60
2022/08/13 04:50:11;;;;;;;6.93;3.53;;;16.40;99.90;;;;;;5008817;28;20025;-59
2022/08/13 04:52:38;;;;;;;6.55;3.72;;;16.40;99.90;;;;;;5012651;28;20404;-60
2022/08/13 04:55:06;;;;;;;6.75;3.10;;;16.50;99.90;;;;;;5002974;28;20030;-59
2022/08/13 04:57:32;;;;;;;5.45;3.03;;;16.50;99.90;;;;;;5005449;28;20485;-59
2022/08/13 04:59:58;;;;;;;4.95;3.45;;;16.50;99.90;;;;;;5009188;28;20034;-56
2022/08/13 05:02:23;;;;;;;5.10;3.38;;;16.60;99.90;;;;;;5009033;28;20037;-60
2022/08/13 05:04:50;;;;;;;5.40;3.58;;;16.70;99.90;;;;;;5010768;28;20427;-59
2022/08/13 05:07:15;;;;;;;6.32;3.58;;;16.80;99.90;;;;;;5015073;28;20049;-58
2022/08/13 05:09:41;;;;;;;4.68;3.20;;;16.80;99.90;;;;;;5005218;28;20030;-59
2022/08/13 05:12:07;;;;;;;11.70;3.47;;;16.80;99.90;;;;;;5001602;28;20033;-59
2022/08/13 05:14:34;;;;;;;5.50;3.30;;;16.80;99.90;;;;;;5008013;28;20503;-58
2022/08/13 05:17:07;;;;;;;6.35;3.10;;;16.80;99.90;;;;;;5012000;28;20221;-59
2022/08/13 05:19:33;;;;;;;6.45;2.75;;;16.80;99.90;;;;;;5006712;28;20022;-59
2022/08/13 05:21:59;;;;;;;4.75;3.50;;;16.90;99.90;;;;;;5014275;28;20040;-59
2022/08/13 05:24:24;;;;;;;4.00;3.33;;;16.90;99.90;;;;;;5009920;28;20030;-59
2022/08/13 05:26:50;;;;;;;12.32;3.10;;;17.00;99.90;;;;;;5011514;28;20602;-60
2022/08/13 05:29:16;;;;;;;4.60;3.17;;;17.00;99.90;;;;;;5022784;28;20074;-59
2022/08/13 05:31:41;;;;;;;3.38;3.08;;;17.00;99.90;;;;;;5040907;28;20029;-58
2022/08/13 05:34:07;;;;;;;4.63;2.65;;;17.10;99.90;;;;;;5030394;28;20061;-58
2022/08/13 05:36:33;;;;;;;3.88;3.00;;;17.20;99.90;;;;;;5029772;28;20067;-58
2022/08/13 05:38:59;;;;;;;3.65;3.10;;;17.20;99.90;;;;;;5036554;28;20029;-59
2022/08/13 05:41:25;;;;;;;6.78;3.30;;;17.30;99.90;;;;;;5035265;28;20028;-59
2022/08/13 05:43:52;;;;;;;6.35;3.22;;;17.40;99.90;;;;;;5035241;28;20029;-60
2022/08/13 05:46:18;;;;;;;4.07;3.30;;;17.50;99.90;;;;;;5032876;28;20037;-60
2022/08/13 05:48:56;;;;;;;5.28;3.63;;;17.60;99.90;;;;;;5036118;28;20025;-59
2022/08/13 05:51:25;;;;;;;7.13;3.08;;;17.70;99.90;;;;;;5031601;28;20120;-59
2022/08/13 05:53:54;;;;;;;4.88;3.10;;;17.70;99.90;;;;;;5038885;28;20106;-57
2022/08/13 05:56:24;;;;;;;6.00;3.33;;;17.90;99.90;;;;;;5035306;28;20021;-59
2022/08/13 05:58:50;;;;;;;4.43;3.13;;;17.90;99.90;;;;;;5030479;28;20107;-57
2022/08/13 06:04:19;;;;;;;7.80;2.70;;;18.20;99.90;;;;;;5003834;28;20068;-55
2022/08/13 06:06:48;;;;;;;3.30;2.95;;;18.30;99.90;;;;;;5029754;28;20026;-57
2022/08/13 06:09:14;;;;;;;21.30;2.95;;;18.40;99.90;;;;;;5027397;28;20030;-55
2022/08/13 06:11:43;;;;;;;3.83;2.38;;;18.40;99.90;;;;;;5036743;28;20400;-58
2022/08/13 06:14:16;;;;;;;7.28;4.32;;;18.50;99.90;;;;;;5032895;28;20038;-57
2022/08/13 06:16:42;;;;;;;4.65;2.80;;;18.60;99.90;;;;;;5031457;28;20018;-57
2022/08/13 06:19:12;;;;;;;4.82;2.83;;;18.70;99.90;;;;;;5032146;28;20034;-54
2022/08/13 06:21:38;;;;;;;6.55;3.05;;;18.80;99.90;;;;;;5033875;28;20135;-57
2022/08/13 06:24:05;;;;;;;6.03;2.75;;;18.90;99.90;;;;;;5032012;28;20510;-60
2022/08/13 06:26:31;;;;;;;8.35;2.65;;;19.10;99.90;;;;;;5022264;28;20107;-58
2022/08/13 06:28:58;;;;;;;3.08;2.42;;;19.10;99.90;;;;;;5017154;28;20068;-59
2022/08/13 06:31:28;;;;;;;5.45;2.70;;;19.20;99.90;;;;;;5042581;28;20502;-61
2022/08/13 06:33:57;;;;;;;4.55;2.40;;;19.40;99.90;;;;;;5026872;28;20025;-58
2022/08/13 06:36:29;;;;;;;3.30;2.55;;;19.50;99.90;;;;;;5026917;28;20056;-58
2022/08/13 06:38:59;;;;;;;8.85;2.45;;;19.60;99.90;;;;;;5031364;28;20105;-60
2022/08/13 06:41:25;;;;;;;3.88;2.30;;;19.70;99.90;;;;;;5030345;28;20025;-58
2022/08/13 06:43:53;;;;;;;5.78;2.50;;;19.80;99.90;;;;;;5035474;28;20037;-57
2022/08/13 06:46:22;;;;;;;10.77;2.58;;;19.90;99.90;;;;;;5025591;28;20048;-59
2022/08/13 06:48:49;;;;;;;3.50;2.15;;;20.10;99.90;;;;;;5032914;28;20036;-59
2022/08/13 06:51:15;;;;;;;4.70;2.67;;;20.10;99.90;;;;;;5020591;28;20042;-56
2022/08/13 06:53:43;;;;;;;3.95;2.22;;;20.20;99.90;;;;;;5031029;28;20395;-57
2022/08/13 06:56:23;;;;;;;5.82;2.40;;;20.30;99.90;;;;;;5024723;28;20100;-57
2022/08/13 06:58:52;;;;;;;6.88;2.15;;;20.40;99.90;;;;;;5028745;28;20092;-60
2022/08/13 07:01:23;;;;;;;4.85;2.05;;;20.50;99.90;;;;;;5031883;28;20420;-59
2022/08/13 07:03:50;;;;;;;2.60;2.00;;;20.60;99.90;;;;;;5030214;28;20039;-60
2022/08/13 07:06:22;;;;;;;5.75;2.45;;;20.70;99.90;;;;;;5032134;28;20021;-60
2022/08/13 07:08:47;;;;;;;3.58;2.00;;;20.80;99.90;;;;;;5027469;28;20026;-59
2022/08/13 07:11:22;;;;;;;4.43;2.47;;;20.90;99.90;;;;;;5031564;28;20036;-61
2022/08/13 07:13:57;;;;;;;4.43;2.33;;;21.10;99.90;;;;;;5024443;28;20018;-60
2022/08/13 07:16:24;;;;;;;;;;;21.20;99.90;;;;;;5031409;28;20029;-61
2022/08/13 07:18:50;;;;;;;2.03;1.63;;;21.30;99.90;;;;;;5043744;28;19951;-57
2022/08/13 07:21:24;;;;;;;4.65;1.70;;;21.40;99.90;;;;;;5019877;28;20029;-58
2022/08/13 07:23:51;;;;;;;8.37;2.07;;;21.40;99.90;;;;;;5026237;28;20029;-58
2022/08/13 07:26:18;;;;;;;5.85;2.25;;;21.50;99.90;;;;;;5033044;28;20037;-58
2022/08/13 07:28:46;;;;;;;2.00;1.80;;;21.60;99.90;;;;;;5030053;28;20372;-58
2022/08/13 07:31:13;;;;;;;4.68;1.98;;;21.80;99.90;;;;;;5032538;28;20029;-58
2022/08/13 07:33:44;;;;;;;5.57;1.80;;;21.80;99.90;;;;;;5027441;28;20022;-58
2022/08/13 07:36:14;;;;;;;1.73;1.45;;;21.90;99.90;;;;;;5026609;28;20048;-58
2022/08/13 07:38:43;;;;;;;6.20;1.73;;;21.90;99.90;;;;;;5030552;28;20422;-58
2022/08/13 07:41:10;;;;;;;2.03;1.77;;;22.00;99.90;;;;;;5042146;28;20490;-58
2022/08/13 07:43:39;;;;;;;4.00;2.50;;;22.00;99.90;;;;;;5030232;28;20029;-58
2022/08/13 07:46:19;;;;;;;2.28;2.08;;;22.20;99.90;;;;;;5029701;28;20117;-58
2022/08/13 07:48:49;;;;;;;4.78;1.70;;;22.20;99.90;;;;;;5045592;28;20386;-58
2022/08/13 07:51:19;;;;;;;2.03;1.73;;;22.40;99.90;;;;;;5022675;28;20028;-58
2022/08/13 07:53:50;;;;;;;4.32;2.00;;;22.50;99.90;;;;;;5030862;28;20040;-58
2022/08/13 07:56:32;;;;;;;2.03;1.58;;;22.60;99.90;;;;;;5031237;28;20029;-58
2022/08/13 07:59:01;;;;;;;2.17;1.92;;;22.70;99.90;;;;;;5039850;28;20032;-58
2022/08/13 08:01:33;;;;;;;5.35;1.70;;;22.80;99.90;;;;;;5036253;28;20022;-57
2022/08/13 08:04:01;;;;;;;3.10;1.70;;;23.00;99.90;;;;;;5027524;28;20025;-58
2022/08/13 08:06:29;;;;;;;5.70;1.67;;;23.10;99.90;;;;;;5024465;28;20034;-58
2022/08/13 08:08:55;;;;;;;5.40;2.13;;;23.20;99.90;;;;;;5029132;28;20172;-59
2022/08/13 08:14:18;;;;;;;2.92;1.75;;;23.40;99.90;;;;;;4973884;28;20058;-59
2022/08/13 08:16:44;;;;;;;3.40;1.90;;;23.50;99.90;;;;;;5033385;28;20044;-57
2022/08/13 08:19:13;;;;;;;2.30;1.92;;;23.70;99.90;;;;;;5024229;28;20029;-57
2022/08/13 08:21:41;;;;;;;11.43;1.77;;;23.80;99.90;;;;;;5032387;28;20029;-57
2022/08/13 08:24:07;;;;;;;4.35;1.50;;;23.80;99.90;;;;;;5028139;28;20048;-58
2022/08/13 08:26:34;;;;;;;3.05;2.25;;;23.90;99.90;;;;;;5033532;28;20087;-58
2022/08/13 08:29:05;;;;;;;5.05;2.25;;;24.10;99.90;;;;;;5023815;28;20103;-57
2022/08/13 08:31:32;;;;;;;5.07;2.03;;;24.10;99.90;;;;;;5023508;28;20109;-57
2022/08/13 08:34:00;;;;;;;1.83;1.33;;;24.20;99.90;;;;;;5023580;28;20050;-58
2022/08/13 08:36:28;;;;;;;3.05;1.70;;;24.20;99.90;;;;;;5024308;28;20027;-57
2022/08/13 08:44:32;;;;;;;6.75;1.77;;;24.60;99.90;;;;;;5022626;28;20040;-57
2022/08/13 08:47:00;;;;;;;2.30;1.77;;;24.70;99.90;;;;;;5025884;28;20036;-58
2022/08/13 08:49:26;;;;;;;3.40;1.63;;;24.80;99.90;;;;;;5029924;28;20766;-57
2022/08/13 08:51:53;;;;;;;4.68;1.80;;;25.00;99.90;;;;;;5030118;28;20427;-55
2022/08/13 08:54:22;;;;;;;2.25;1.40;;;25.10;99.90;;;;;;5025284;28;20025;-56
2022/08/13 08:56:54;;;;;;;5.05;1.75;;;25.30;99.90;;;;;;5033782;28;20474;-57
2022/08/13 08:59:23;;;;;;;4.88;1.45;;;25.40;99.90;;;;;;5023737;28;20121;-57
2022/08/13 09:01:55;;;;;;;5.35;1.48;;;25.50;99.90;;;;;;5032627;28;20147;-57
2022/08/13 09:04:25;;;;;;;4.50;1.25;;;25.60;99.90;;;;;;5033069;28;20040;-57
2022/08/13 09:06:56;;;;;;;4.00;1.50;;;25.70;99.90;;;;;;5033068;28;20026;-57
2022/08/13 09:09:23;;;;;;;9.75;1.55;;;25.80;99.90;;;;;;5032481;28;20029;-56
2022/08/13 09:11:52;;;;;;;5.75;1.58;;;26.00;99.90;;;;;;5033958;28;20296;-57
2022/08/13 09:14:19;;;;;;;3.03;1.30;;;26.20;99.90;;;;;;5027318;28;20055;-57
2022/08/13 09:16:46;;;;;;;6.82;1.60;;;26.40;99.90;;;;;;5027858;28;20053;-58
2022/08/13 09:19:14;;;;;;;1.65;1.27;;;26.50;99.90;;;;;;5026760;28;20021;-58
2022/08/13 09:21:45;;;;;;;2.53;1.33;;;26.60;99.90;;;;;;5030647;28;20037;-57
2022/08/13 09:24:14;;;;;;;5.75;1.30;;;26.70;99.90;;;;;;5026498;28;20048;-57
2022/08/13 09:26:51;;;;;;;4.43;1.50;;;26.80;99.90;;;;;;5032495;28;20026;-56
2022/08/13 09:29:18;;;;;;;1.33;1.20;;;27.00;99.90;;;;;;5039497;28;20043;-58
2022/08/13 09:31:48;;;;;;;3.58;1.83;;;27.10;99.90;;;;;;5047947;28;20022;-59
2022/08/13 09:34:15;;;;;;;1.27;1.10;;;27.20;99.90;;;;;;5038688;28;20060;-55
2022/08/13 09:36:41;;;;;;;4.20;1.38;;;27.40;99.90;;;;;;5045809;28;20056;-56
2022/08/13 09:39:08;;;;;;;1.63;1.52;;;27.40;99.90;;;;;;5033377;28;20029;-57
2022/08/13 09:41:46;;;;;;;3.38;1.40;;;27.50;99.90;;;;;;5032706;28;20488;-59
2022/08/13 09:44:14;;;;;;;6.55;1.88;;;27.60;99.90;;;;;;5027114;28;20435;-58
2022/08/13 09:46:42;;;;;;;5.40;1.42;;;27.90;99.90;;;;;;5031096;28;20635;-58
2022/08/13 09:49:08;;;;;;;4.63;1.67;;;28.00;99.90;;;;;;5036017;28;20403;-58
2022/08/13 09:51:35;;;;;;;4.25;1.75;;;28.20;99.90;;;;;;5029863;28;20163;-59
2022/08/13 09:54:09;;;;;;;2.42;1.35;;;28.40;99.90;;;;;;5029171;28;20028;-58
2022/08/13 09:56:38;;;;;;;3.78;1.42;;;28.50;98.50;;;;;;5030569;28;20021;-60
2022/08/13 09:59:08;;;;;;;11.35;1.65;;;28.50;98.00;;;;;;5037881;28;20040;-60
2022/08/13 10:01:34;;;;;;;7.75;1.13;;;28.80;99.10;;;;;;5030461;28;20127;-60
2022/08/13 10:04:01;;;;;;;3.25;1.38;;;28.90;98.50;;;;;;5026084;28;20526;-59
2022/08/13 10:06:28;;;;;;;1.95;1.27;;;29.10;98.30;;;;;;5033587;28;20052;-60
2022/08/13 10:09:00;;;;;;;4.10;1.67;;;29.30;96.50;;;;;;5028124;28;20022;-59
2022/08/13 10:11:26;;;;;;;8.10;1.27;;;29.40;96.00;;;;;;5031897;28;20026;-60
2022/08/13 10:13:53;;;;;;;1.77;1.30;;;29.40;97.10;;;;;;5025931;28;20112;-61
2022/08/13 10:16:19;;;;;;;2.83;1.17;;;29.40;96.30;;;;;;5026344;28;20026;-60
2022/08/13 10:18:46;;;;;;;1.67;1.23;;;29.80;96.30;;;;;;5022825;28;20029;-59
2022/08/13 10:21:12;;;;;;;2.17;1.30;;;29.80;97.50;;;;;;5023236;28;20033;-60
2022/08/13 10:23:38;;;;;;;4.28;1.15;;;30.10;95.20;;;;;;5024922;28;20157;-60
2022/08/13 10:26:03;;;;;;;2.97;1.10;;;30.20;95.10;;;;;;5020965;28;20803;-61
2022/08/13 10:28:34;;;;;;;3.78;1.45;;;30.50;94.40;;;;;;5042472;28;20448;-61
2022/08/13 10:31:07;;;;;;;2.70;1.45;;;30.70;94.80;;;;;;5032051;28;20029;-60
2022/08/13 10:33:33;;;;;;;3.07;1.23;;;30.90;92.30;;;;;;5007452;28;20033;-61
2022/08/13 10:35:59;;;;;;;2.30;1.20;;;30.90;92.80;;;;;;5028330;28;20676;-60
2022/08/13 10:38:28;;;;;;;2.33;1.15;;;30.80;93.00;;;;;;5028007;28;20029;-59
2022/08/13 10:40:57;;;;;;;3.28;1.10;;;31.00;93.00;;;;;;5030788;28;20064;-60
2022/08/13 10:43:23;;;;;;;3.22;1.30;;;31.30;91.30;;;;;;5026266;28;20029;-61
2022/08/13 10:45:50;;;;;;;2.95;0.98;;;31.20;92.20;;;;;;5015018;28;20031;-61
2022/08/13 10:48:17;;;;;;;1.40;1.30;;;31.40;90.40;;;;;;5019688;28;20456;-61
2022/08/13 10:50:43;;;;;;;2.50;1.40;;;31.30;91.20;;;;;;5018199;28;20152;-61
2022/08/13 10:53:54;;;;;;;2.28;1.30;;;31.30;90.00;;;;;;5016605;28;20057;-61
2022/08/13 10:55:54;;;;;;;1.73;1.17;;;31.30;90.10;;;;;;5023885;28;20057;-62
2022/08/13 10:58:20;;;;;;;1.30;1.10;;;31.50;90.50;;;;;;5021868;28;20108;-60
2022/08/13 11:00:46;;;;;;;2.92;1.40;;;31.70;88.70;;;;;;5026006;28;20030;-59
2022/08/13 11:03:15;;;;;;;4.75;1.10;;;32.00;88.20;;;;;;5026799;28;20057;-62
2022/08/13 11:05:41;;;;;;;4.40;1.17;;;32.30;85.90;;;;;;5027144;28;20021;-62
2022/08/13 11:08:07;;;;;;;2.08;1.20;;;31.90;86.30;;;;;;5023481;28;20055;-62
2022/08/13 11:10:34;;;;;;;2.58;1.30;;;31.60;90.80;;;;;;5026899;28;20036;-62
2022/08/13 11:13:00;;;;;;;1.83;1.35;;;31.90;87.10;;;;;;5023665;28;20053;-60
2022/08/13 11:15:26;;;;;;;1.17;1.10;;;32.00;82.60;;;;;;5029803;28;20118;-62
2022/08/13 11:17:53;;;;;;;2.05;1.05;;;31.90;82.80;;;;;;5026623;28;20040;-63
2022/08/13 11:20:22;;;;;;;1.58;1.10;;;31.90;82.80;;;;;;5022731;28;20018;-62
2022/08/13 11:22:49;;;;;;;6.85;1.05;;;31.90;81.70;;;;;;5023120;28;20024;-62
2022/08/13 11:25:15;;;;;;;3.08;1.20;;;31.80;88.10;;;;;;5037303;28;20033;-62
2022/08/13 11:27:41;;;;;;;2.55;1.05;;;32.30;82.30;;;;;;5026320;28;20029;-62
2022/08/13 11:30:07;;;;;;;2.17;1.20;;;32.50;84.00;;;;;;5024671;28;20489;-62
2022/08/13 11:32:33;;;;;;;5.20;1.45;;;32.50;83.60;;;;;;5026588;28;20526;-59
2022/08/13 11:34:58;;;;;;;1.70;1.20;;;32.70;86.30;;;;;;5006383;28;20056;-61
2022/08/13 11:37:24;;;;;;;1.73;1.23;;;32.90;79.20;;;;;;5025708;28;20030;-62
2022/08/13 11:39:49;;;;;;;3.17;1.08;;;32.80;83.20;;;;;;5026727;28;20033;-61
2022/08/13 11:42:15;;;;;;;1.25;1.15;;;33.00;77.70;;;;;;5032105;28;20040;-62
2022/08/13 11:44:40;;;;;;;2.88;1.10;;;33.10;76.90;;;;;;5027853;28;20041;-63
2022/08/13 11:47:06;;;;;;;2.70;1.00;;;32.70;81.10;;;;;;5022396;28;20037;-61
2022/08/13 11:49:31;;;;;;;2.30;1.20;;;32.70;82.80;;;;;;5020839;28;20026;-60
2022/08/13 11:51:57;;;;;;;4.15;1.10;;;33.00;76.50;;;;;;5025326;28;20033;-61
2022/08/13 11:54:24;;;;;;;1.25;1.13;;;33.10;79.80;;;;;;5026239;28;20052;-62
2022/08/13 11:56:50;;;;;;;5.05;1.17;;;33.30;80.80;;;;;;5031637;28;20025;-61
2022/08/13 11:59:15;;;;;;;1.20;1.10;;;33.00;79.70;;;;;;5032388;28;20029;-61
2022/08/13 12:01:41;;;;;;;1.55;1.10;;;32.70;77.80;;;;;;5019965;28;20041;-60
2022/08/13 12:04:07;;;;;;;1.40;1.30;;;33.30;78.20;;;;;;5022841;28;20096;-60
2022/08/13 12:06:32;;;;;;;1.45;1.05;;;33.50;77.80;;;;;;5031371;28;20036;-62
2022/08/13 12:08:58;;;;;;;1.35;1.00;;;33.70;76.20;;;;;;5023604;28;20036;-61
2022/08/13 12:11:24;;;;;;;3.92;0.90;;;33.60;75.40;;;;;;5022478;28;20029;-59
2022/08/13 12:13:49;;;;;;;5.55;1.02;;;34.10;74.40;;;;;;5032315;28;20032;-61
2022/08/13 12:16:15;;;;;;;6.60;1.40;;;33.50;77.30;;;;;;5032583;28;20595;-62
2022/08/13 12:18:40;;;;;;;2.15;1.10;;;33.80;74.80;;;;;;5025546;28;21063;-61
2022/08/13 12:21:06;;;;;;;1.23;1.08;;;34.10;71.70;;;;;;5030117;28;20538;-61
2022/08/13 12:23:32;;;;;;;4.88;1.10;;;34.10;73.90;;;;;;5025581;28;20533;-61
2022/08/13 12:25:57;;;;;;;4.97;1.23;;;34.40;69.60;;;;;;5021050;28;20037;-60
2022/08/13 12:28:27;;;;;;;2.05;1.02;;;34.40;72.50;;;;;;5024977;28;20045;-61
2022/08/13 12:31:03;;;;;;;1.10;1.00;;;34.40;71.90;;;;;;5019190;28;20033;-59
2022/08/13 12:33:30;;;;;;;1.10;1.00;;;34.30;68.30;;;;;;5024012;28;20120;-61
2022/08/13 12:35:55;;;;;;;1.33;1.05;;;34.30;66.30;;;;;;5028864;28;20037;-60
2022/08/13 12:38:21;;;;;;;1.50;1.05;;;33.90;67.00;;;;;;5026300;28;20025;-62
2022/08/13 12:40:47;;;;;;;2.30;1.20;;;33.40;70.70;;;;;;5030750;28;20029;-62
2022/08/13 12:43:14;;;;;;;7.93;1.75;;;33.20;72.50;;;;;;5023180;28;20022;-60
2022/08/13 12:45:42;;;;;;;7.85;1.27;;;33.70;73.30;;;;;;5024421;28;20021;-61
2022/08/13 12:48:13;;;;;;;1.85;1.10;;;33.60;70.20;;;;;;5026787;28;20057;-62
2022/08/13 12:50:40;;;;;;;1.42;1.13;;;33.60;73.40;;;;;;5023105;28;20037;-61
2022/08/13 12:53:06;;;;;;;1.05;0.90;;;33.60;69.80;;;;;;5029983;28;20026;-62
2022/08/13 12:55:34;;;;;;;1.50;1.00;;;33.40;65.30;;;;;;5015566;28;20024;-61
2022/08/13 12:58:14;;;;;;;3.58;1.20;;;33.40;69.60;;;;;;5036752;28;20123;-60
2022/08/13 13:00:40;;;;;;;1.75;1.10;;;33.60;67.10;;;;;;5022732;28;20022;-58
2022/08/13 13:03:06;;;;;;;2.03;1.05;;;34.20;65.60;;;;;;5020534;28;20163;-62
2022/08/13 13:05:32;;;;;;;5.18;1.30;;;33.90;65.90;;;;;;5023382;28;20104;-60
2022/08/13 13:07:57;;;;;;;2.35;1.20;;;34.20;70.30;;;;;;5027814;28;20474;-59
2022/08/13 13:10:23;;;;;;;1.98;1.50;;;34.20;67.00;;;;;;5022735;28;20030;-59
2022/08/13 13:12:49;;;;;;;3.92;1.23;;;34.30;63.80;;;;;;5027817;28;20046;-58
2022/08/13 13:15:15;;;;;;;2.25;1.08;;;34.60;67.70;;;;;;5020860;28;20021;-58
2022/08/13 13:17:41;;;;;;;2.35;1.42;;;34.70;65.30;;;;;;5023700;28;20056;-61
2022/08/13 13:20:08;;;;;;;1.95;1.13;;;35.20;65.10;;;;;;5025877;28;20060;-60